sensor_id;sensor_type;location;lat;lon;timestamp;P1;durP1;ratioP1;P2;durP2;ratioP2
40122;SDS011;25832;45.490;4.912;2023-04-05T00:00:12;4.40;;;2.80;;
40122;SDS011;25832;45.490;4.912;2023-04-05T00:02:39;5.38;;;2.60;;
40122;SDS011;25832;45.490;4.912;2023-04-05T00:05:06;6.15;;;2.95;;
40122;SDS011;25832;45.490;4.912;2023-04-05T00:07:32;4.05;;;2.38;;
40122;SDS011;25832;45.490;4.912;2023-04-05T00:14:50;7.82;;;2.60;;
40122;SDS011;25832;45.490;4.912;2023-04-05T00:17:16;5.13;;;2.78;;
40122;SDS011;25832;45.490;4.912;2023-04-05T00:19:42;4.05;;;2.67;;
40122;SDS011;25832;45.490;4.912;2023-04-05T00:22:09;4.10;;;2.53;;
40122;SDS011;25832;45.490;4.912;2023-04-05T00:24:35;6.68;;;2.72;;
40122;SDS011;25832;45.490;4.912;2023-04-05T00:27:05;8.55;;;3.22;;
40122;SDS011;25832;45.490;4.912;2023-04-05T00:29:31;7.45;;;2.30;;
40122;SDS011;25832;45.490;4.912;2023-04-05T00:31:57;6.95;;;2.88;;
40122;SDS011;25832;45.490;4.912;2023-04-05T00:34:23;4.47;;;2.78;;
40122;SDS011;25832;45.490;4.912;2023-04-05T00:36:49;7.38;;;3.85;;
40122;SDS011;25832;45.490;4.912;2023-04-05T00:39:14;5.90;;;3.08;;
40122;SDS011;25832;45.490;4.912;2023-04-05T00:41:40;5.45;;;4.35;;
40122;SDS011;25832;45.490;4.912;2023-04-05T00:44:08;5.93;;;3.17;;
40122;SDS011;25832;45.490;4.912;2023-04-05T00:46:34;5.47;;;2.88;;
40122;SDS011;25832;45.490;4.912;2023-04-05T00:49:02;6.55;;;3.50;;
40122;SDS011;25832;45.490;4.912;2023-04-05T00:51:29;7.35;;;3.55;;
40122;SDS011;25832;45.490;4.912;2023-04-05T00:53:57;4.38;;;2.53;;
40122;SDS011;25832;45.490;4.912;2023-04-05T00:56:25;5.78;;;3.05;;
40122;SDS011;25832;45.490;4.912;2023-04-05T00:58:52;4.55;;;2.63;;
40122;SDS011;25832;45.490;4.912;2023-04-05T01:01:18;7.03;;;3.33;;
40122;SDS011;25832;45.490;4.912;2023-04-05T01:03:52;5.25;;;3.03;;
40122;SDS011;25832;45.490;4.912;2023-04-05T01:11:32;6.13;;;3.20;;
40122;SDS011;25832;45.490;4.912;2023-04-05T01:14:02;7.65;;;3.53;;
40122;SDS011;25832;45.490;4.912;2023-04-05T01:16:27;5.18;;;3.08;;
40122;SDS011;25832;45.490;4.912;2023-04-05T01:18:54;9.98;;;4.45;;
40122;SDS011;25832;45.490;4.912;2023-04-05T01:23:52;11.18;;;2.83;;
40122;SDS011;25832;45.490;4.912;2023-04-05T01:32:14;6.90;;;3.22;;
40122;SDS011;25832;45.490;4.912;2023-04-05T01:37:14;3.90;;;3.08;;
40122;SDS011;25832;45.490;4.912;2023-04-05T01:39:44;6.95;;;3.25;;
40122;SDS011;25832;45.490;4.912;2023-04-05T01:42:15;8.57;;;3.72;;
40122;SDS011;25832;45.490;4.912;2023-04-05T01:44:47;8.43;;;4.10;;
40122;SDS011;25832;45.490;4.912;2023-04-05T01:47:13;6.57;;;4.13;;
40122;SDS011;25832;45.490;4.912;2023-04-05T01:49:38;7.72;;;4.00;;
40122;SDS011;25832;45.490;4.912;2023-04-05T01:52:04;6.63;;;3.70;;
40122;SDS011;25832;45.490;4.912;2023-04-05T01:54:30;9.70;;;3.72;;
40122;SDS011;25832;45.490;4.912;2023-04-05T01:56:56;8.55;;;3.90;;
40122;SDS011;25832;45.490;4.912;2023-04-05T01:59:22;7.63;;;3.75;;
40122;SDS011;25832;45.490;4.912;2023-04-05T02:01:47;6.10;;;3.60;;
40122;SDS011;25832;45.490;4.912;2023-04-05T02:04:13;6.68;;;4.10;;
40122;SDS011;25832;45.490;4.912;2023-04-05T02:06:39;8.20;;;3.88;;
40122;SDS011;25832;45.490;4.912;2023-04-05T02:09:05;8.77;;;3.90;;
40122;SDS011;25832;45.490;4.912;2023-04-05T02:11:31;4.78;;;3.55;;
40122;SDS011;25832;45.490;4.912;2023-04-05T02:13:56;7.00;;;3.38;;
40122;SDS011;25832;45.490;4.912;2023-04-05T02:16:22;6.13;;;3.10;;
40122;SDS011;25832;45.490;4.912;2023-04-05T02:18:49;7.80;;;4.60;;
40122;SDS011;25832;45.490;4.912;2023-04-05T02:21:15;7.07;;;3.90;;
40122;SDS011;25832;45.490;4.912;2023-04-05T02:23:41;6.78;;;4.28;;
40122;SDS011;25832;45.490;4.912;2023-04-05T02:26:07;6.80;;;4.35;;
40122;SDS011;25832;45.490;4.912;2023-04-05T02:28:33;8.23;;;4.45;;
40122;SDS011;25832;45.490;4.912;2023-04-05T02:30:59;10.60;;;5.00;;
40122;SDS011;25832;45.490;4.912;2023-04-05T02:33:25;8.02;;;4.10;;
40122;SDS011;25832;45.490;4.912;2023-04-05T02:35:52;7.38;;;4.32;;
40122;SDS011;25832;45.490;4.912;2023-04-05T02:38:18;6.43;;;4.75;;
40122;SDS011;25832;45.490;4.912;2023-04-05T02:40:47;7.32;;;4.30;;
40122;SDS011;25832;45.490;4.912;2023-04-05T02:43:13;8.02;;;4.63;;
40122;SDS011;25832;45.490;4.912;2023-04-05T02:45:39;7.82;;;4.53;;
40122;SDS011;25832;45.490;4.912;2023-04-05T02:48:05;8.63;;;4.75;;
40122;SDS011;25832;45.490;4.912;2023-04-05T02:50:31;6.40;;;3.92;;
40122;SDS011;25832;45.490;4.912;2023-04-05T02:52:57;8.57;;;4.88;;
40122;SDS011;25832;45.490;4.912;2023-04-05T02:55:22;11.32;;;4.53;;
40122;SDS011;25832;45.490;4.912;2023-04-05T02:57:48;7.10;;;4.28;;
40122;SDS011;25832;45.490;4.912;2023-04-05T03:00:14;8.13;;;4.53;;
40122;SDS011;25832;45.490;4.912;2023-04-05T03:02:41;7.00;;;5.45;;
40122;SDS011;25832;45.490;4.912;2023-04-05T03:05:07;6.32;;;4.18;;
40122;SDS011;25832;45.490;4.912;2023-04-05T03:07:33;9.15;;;4.57;;
40122;SDS011;25832;45.490;4.912;2023-04-05T03:09:59;9.07;;;5.10;;
40122;SDS011;25832;45.490;4.912;2023-04-05T03:12:25;8.98;;;5.15;;
40122;SDS011;25832;45.490;4.912;2023-04-05T03:14:51;8.82;;;4.95;;
40122;SDS011;25832;45.490;4.912;2023-04-05T03:17:17;8.63;;;4.95;;
40122;SDS011;25832;45.490;4.912;2023-04-05T03:19:42;8.57;;;4.75;;
40122;SDS011;25832;45.490;4.912;2023-04-05T03:22:09;9.35;;;5.07;;
40122;SDS011;25832;45.490;4.912;2023-04-05T03:24:35;8.50;;;4.75;;
40122;SDS011;25832;45.490;4.912;2023-04-05T03:27:01;6.80;;;4.10;;
40122;SDS011;25832;45.490;4.912;2023-04-05T03:29:28;9.68;;;4.65;;
40122;SDS011;25832;45.490;4.912;2023-04-05T03:31:56;7.63;;;4.75;;
40122;SDS011;25832;45.490;4.912;2023-04-05T03:34:23;10.05;;;5.68;;
40122;SDS011;25832;45.490;4.912;2023-04-05T03:36:53;8.95;;;5.22;;
40122;SDS011;25832;45.490;4.912;2023-04-05T03:39:19;9.25;;;5.40;;
40122;SDS011;25832;45.490;4.912;2023-04-05T03:41:45;13.30;;;5.90;;
40122;SDS011;25832;45.490;4.912;2023-04-05T03:44:11;8.13;;;5.50;;
40122;SDS011;25832;45.490;4.912;2023-04-05T03:46:37;8.82;;;5.03;;
40122;SDS011;25832;45.490;4.912;2023-04-05T03:51:28;8.20;;;5.95;;
40122;SDS011;25832;45.490;4.912;2023-04-05T03:53:55;13.43;;;5.28;;
40122;SDS011;25832;45.490;4.912;2023-04-05T03:56:20;10.15;;;7.10;;
40122;SDS011;25832;45.490;4.912;2023-04-05T03:58:46;7.38;;;5.07;;
40122;SDS011;25832;45.490;4.912;2023-04-05T04:01:14;7.60;;;5.05;;
40122;SDS011;25832;45.490;4.912;2023-04-05T04:03:40;13.93;;;6.05;;
40122;SDS011;25832;45.490;4.912;2023-04-05T04:06:06;7.07;;;4.82;;
40122;SDS011;25832;45.490;4.912;2023-04-05T04:08:32;6.72;;;4.70;;
40122;SDS011;25832;45.490;4.912;2023-04-05T04:10:58;8.73;;;5.50;;
40122;SDS011;25832;45.490;4.912;2023-04-05T04:13:24;10.35;;;5.45;;
40122;SDS011;25832;45.490;4.912;2023-04-05T04:15:50;17.13;;;6.25;;
40122;SDS011;25832;45.490;4.912;2023-04-05T04:18:16;10.70;;;5.40;;
40122;SDS011;25832;45.490;4.912;2023-04-05T04:20:42;10.68;;;5.55;;
40122;SDS011;25832;45.490;4.912;2023-04-05T04:23:07;7.68;;;5.15;;
40122;SDS011;25832;45.490;4.912;2023-04-05T04:25:34;7.90;;;5.10;;
40122;SDS011;25832;45.490;4.912;2023-04-05T04:28:01;12.60;;;6.53;;
40122;SDS011;25832;45.490;4.912;2023-04-05T04:30:28;8.00;;;5.47;;
40122;SDS011;25832;45.490;4.912;2023-04-05T04:32:53;8.90;;;5.53;;
40122;SDS011;25832;45.490;4.912;2023-04-05T04:35:24;9.93;;;5.05;;
40122;SDS011;25832;45.490;4.912;2023-04-05T04:37:53;9.30;;;5.78;;
40122;SDS011;25832;45.490;4.912;2023-04-05T04:40:27;8.20;;;4.63;;
40122;SDS011;25832;45.490;4.912;2023-04-05T04:42:56;12.15;;;5.75;;
40122;SDS011;25832;45.490;4.912;2023-04-05T04:45:25;12.13;;;5.45;;
40122;SDS011;25832;45.490;4.912;2023-04-05T04:47:51;9.85;;;5.95;;
40122;SDS011;25832;45.490;4.912;2023-04-05T04:50:18;7.78;;;5.07;;
40122;SDS011;25832;45.490;4.912;2023-04-05T04:52:44;21.17;;;6.07;;
40122;SDS011;25832;45.490;4.912;2023-04-05T04:55:11;8.38;;;6.40;;
40122;SDS011;25832;45.490;4.912;2023-04-05T04:57:38;9.23;;;5.78;;
40122;SDS011;25832;45.490;4.912;2023-04-05T05:00:06;10.95;;;5.90;;
40122;SDS011;25832;45.490;4.912;2023-04-05T05:02:38;8.10;;;5.40;;
40122;SDS011;25832;45.490;4.912;2023-04-05T05:05:06;13.32;;;5.43;;
40122;SDS011;25832;45.490;4.912;2023-04-05T05:07:33;8.50;;;5.57;;
40122;SDS011;25832;45.490;4.912;2023-04-05T05:09:59;10.55;;;6.75;;
40122;SDS011;25832;45.490;4.912;2023-04-05T05:12:25;12.07;;;5.88;;
40122;SDS011;25832;45.490;4.912;2023-04-05T05:14:51;10.55;;;5.97;;
40122;SDS011;25832;45.490;4.912;2023-04-05T05:17:17;11.93;;;6.15;;
40122;SDS011;25832;45.490;4.912;2023-04-05T05:19:44;12.35;;;6.93;;
40122;SDS011;25832;45.490;4.912;2023-04-05T05:22:09;12.88;;;6.68;;
40122;SDS011;25832;45.490;4.912;2023-04-05T05:24:35;10.77;;;6.03;;
40122;SDS011;25832;45.490;4.912;2023-04-05T05:27:01;9.73;;;6.07;;
40122;SDS011;25832;45.490;4.912;2023-04-05T05:29:27;7.45;;;5.28;;
40122;SDS011;25832;45.490;4.912;2023-04-05T05:31:53;10.05;;;6.03;;
40122;SDS011;25832;45.490;4.912;2023-04-05T05:34:19;15.02;;;6.32;;
40122;SDS011;25832;45.490;4.912;2023-04-05T05:36:46;12.18;;;6.30;;
40122;SDS011;25832;45.490;4.912;2023-04-05T05:39:11;8.40;;;6.15;;
40122;SDS011;25832;45.490;4.912;2023-04-05T05:41:37;9.20;;;5.75;;
40122;SDS011;25832;45.490;4.912;2023-04-05T05:44:03;9.98;;;6.07;;
40122;SDS011;25832;45.490;4.912;2023-04-05T05:46:30;9.63;;;6.85;;
40122;SDS011;25832;45.490;4.912;2023-04-05T05:48:56;12.65;;;6.78;;
40122;SDS011;25832;45.490;4.912;2023-04-05T05:51:22;13.98;;;6.20;;
40122;SDS011;25832;45.490;4.912;2023-04-05T05:53:47;9.18;;;5.95;;
40122;SDS011;25832;45.490;4.912;2023-04-05T05:56:13;9.82;;;5.72;;
40122;SDS011;25832;45.490;4.912;2023-04-05T05:58:39;8.50;;;5.80;;
40122;SDS011;25832;45.490;4.912;2023-04-05T06:01:05;11.45;;;6.13;;
40122;SDS011;25832;45.490;4.912;2023-04-05T06:03:31;9.15;;;5.72;;
40122;SDS011;25832;45.490;4.912;2023-04-05T06:05:57;14.63;;;6.60;;
40122;SDS011;25832;45.490;4.912;2023-04-05T06:08:24;9.85;;;5.70;;
40122;SDS011;25832;45.490;4.912;2023-04-05T06:10:54;15.82;;;6.10;;
40122;SDS011;25832;45.490;4.912;2023-04-05T06:13:20;11.93;;;6.00;;
40122;SDS011;25832;45.490;4.912;2023-04-05T06:15:49;11.23;;;7.10;;
40122;SDS011;25832;45.490;4.912;2023-04-05T06:18:15;11.23;;;6.75;;
40122;SDS011;25832;45.490;4.912;2023-04-05T06:20:41;12.35;;;6.32;;
40122;SDS011;25832;45.490;4.912;2023-04-05T06:23:11;14.93;;;6.90;;
40122;SDS011;25832;45.490;4.912;2023-04-05T06:25:37;9.52;;;6.90;;
40122;SDS011;25832;45.490;4.912;2023-04-05T06:28:04;10.10;;;5.75;;
40122;SDS011;25832;45.490;4.912;2023-04-05T06:30:31;11.70;;;5.40;;
40122;SDS011;25832;45.490;4.912;2023-04-05T06:32:58;8.05;;;5.75;;
40122;SDS011;25832;45.490;4.912;2023-04-05T06:35:24;14.55;;;6.20;;
40122;SDS011;25832;45.490;4.912;2023-04-05T06:37:50;12.80;;;6.72;;
40122;SDS011;25832;45.490;4.912;2023-04-05T06:40:17;12.57;;;5.65;;
40122;SDS011;25832;45.490;4.912;2023-04-05T06:42:43;11.75;;;6.03;;
40122;SDS011;25832;45.490;4.912;2023-04-05T06:45:10;11.43;;;6.15;;
40122;SDS011;25832;45.490;4.912;2023-04-05T06:47:39;9.23;;;6.32;;
40122;SDS011;25832;45.490;4.912;2023-04-05T06:50:06;9.25;;;5.78;;
40122;SDS011;25832;45.490;4.912;2023-04-05T06:52:33;10.27;;;6.15;;
40122;SDS011;25832;45.490;4.912;2023-04-05T06:54:59;10.30;;;6.30;;
40122;SDS011;25832;45.490;4.912;2023-04-05T06:57:25;9.90;;;6.13;;
40122;SDS011;25832;45.490;4.912;2023-04-05T06:59:52;11.82;;;6.75;;
40122;SDS011;25832;45.490;4.912;2023-04-05T07:02:21;10.15;;;6.53;;
40122;SDS011;25832;45.490;4.912;2023-04-05T07:04:47;9.52;;;5.88;;
40122;SDS011;25832;45.490;4.912;2023-04-05T07:07:13;12.88;;;6.75;;
40122;SDS011;25832;45.490;4.912;2023-04-05T07:09:39;10.32;;;5.57;;
40122;SDS011;25832;45.490;4.912;2023-04-05T07:12:05;9.75;;;5.47;;
40122;SDS011;25832;45.490;4.912;2023-04-05T07:14:32;13.43;;;7.03;;
40122;SDS011;25832;45.490;4.912;2023-04-05T07:16:59;8.75;;;5.63;;
40122;SDS011;25832;45.490;4.912;2023-04-05T07:19:25;12.20;;;6.05;;
40122;SDS011;25832;45.490;4.912;2023-04-05T07:21:52;9.95;;;5.50;;
40122;SDS011;25832;45.490;4.912;2023-04-05T07:24:18;10.75;;;6.40;;
40122;SDS011;25832;45.490;4.912;2023-04-05T07:26:43;9.70;;;6.65;;
40122;SDS011;25832;45.490;4.912;2023-04-05T07:29:11;14.70;;;7.88;;
40122;SDS011;25832;45.490;4.912;2023-04-05T07:31:37;10.40;;;6.30;;
40122;SDS011;25832;45.490;4.912;2023-04-05T07:34:03;10.23;;;5.57;;
40122;SDS011;25832;45.490;4.912;2023-04-05T07:36:30;19.02;;;6.80;;
40122;SDS011;25832;45.490;4.912;2023-04-05T07:38:56;7.35;;;5.50;;
40122;SDS011;25832;45.490;4.912;2023-04-05T07:41:26;8.70;;;5.40;;
40122;SDS011;25832;45.490;4.912;2023-04-05T07:43:56;12.27;;;6.25;;
40122;SDS011;25832;45.490;4.912;2023-04-05T07:46:22;9.15;;;5.65;;
40122;SDS011;25832;45.490;4.912;2023-04-05T07:48:48;10.70;;;5.95;;
40122;SDS011;25832;45.490;4.912;2023-04-05T07:51:14;11.32;;;6.43;;
40122;SDS011;25832;45.490;4.912;2023-04-05T07:53:40;8.90;;;6.03;;
40122;SDS011;25832;45.490;4.912;2023-04-05T07:56:07;9.40;;;5.85;;
40122;SDS011;25832;45.490;4.912;2023-04-05T07:58:35;6.93;;;5.13;;
40122;SDS011;25832;45.490;4.912;2023-04-05T08:01:04;13.40;;;6.63;;
40122;SDS011;25832;45.490;4.912;2023-04-05T08:03:30;7.95;;;5.60;;
40122;SDS011;25832;45.490;4.912;2023-04-05T08:05:59;10.27;;;6.55;;
40122;SDS011;25832;45.490;4.912;2023-04-05T08:08:45;7.90;;;5.50;;
40122;SDS011;25832;45.490;4.912;2023-04-05T08:11:11;13.15;;;6.43;;
40122;SDS011;25832;45.490;4.912;2023-04-05T08:13:37;17.92;;;7.32;;
40122;SDS011;25832;45.490;4.912;2023-04-05T08:16:06;10.68;;;5.45;;
40122;SDS011;25832;45.490;4.912;2023-04-05T08:18:35;17.95;;;6.30;;
40122;SDS011;25832;45.490;4.912;2023-04-05T08:21:01;11.00;;;6.18;;
40122;SDS011;25832;45.490;4.912;2023-04-05T08:23:28;9.02;;;5.13;;
40122;SDS011;25832;45.490;4.912;2023-04-05T08:25:54;11.60;;;5.63;;
40122;SDS011;25832;45.490;4.912;2023-04-05T08:28:20;9.50;;;5.90;;
40122;SDS011;25832;45.490;4.912;2023-04-05T08:30:46;9.95;;;5.57;;
40122;SDS011;25832;45.490;4.912;2023-04-05T08:33:12;10.18;;;5.07;;
40122;SDS011;25832;45.490;4.912;2023-04-05T08:38:04;14.00;;;5.88;;
40122;SDS011;25832;45.490;4.912;2023-04-05T08:40:41;10.57;;;5.55;;
40122;SDS011;25832;45.490;4.912;2023-04-05T08:45:56;11.98;;;5.53;;
40122;SDS011;25832;45.490;4.912;2023-04-05T08:48:23;7.95;;;5.40;;
40122;SDS011;25832;45.490;4.912;2023-04-05T08:50:53;13.85;;;5.97;;
40122;SDS011;25832;45.490;4.912;2023-04-05T08:53:19;13.85;;;5.53;;
40122;SDS011;25832;45.490;4.912;2023-04-05T08:55:49;12.35;;;6.43;;
40122;SDS011;25832;45.490;4.912;2023-04-05T08:58:16;12.07;;;5.28;;
40122;SDS011;25832;45.490;4.912;2023-04-05T09:00:43;7.10;;;5.18;;
40122;SDS011;25832;45.490;4.912;2023-04-05T09:03:14;10.30;;;5.60;;
40122;SDS011;25832;45.490;4.912;2023-04-05T09:05:45;10.50;;;5.55;;
40122;SDS011;25832;45.490;4.912;2023-04-05T09:08:14;7.88;;;4.60;;
40122;SDS011;25832;45.490;4.912;2023-04-05T09:10:41;13.82;;;5.85;;
40122;SDS011;25832;45.490;4.912;2023-04-05T09:13:07;14.93;;;6.10;;
40122;SDS011;25832;45.490;4.912;2023-04-05T09:15:36;13.20;;;6.57;;
40122;SDS011;25832;45.490;4.912;2023-04-05T09:18:03;24.85;;;6.50;;
40122;SDS011;25832;45.490;4.912;2023-04-05T09:20:29;41.83;;;8.15;;
40122;SDS011;25832;45.490;4.912;2023-04-05T09:22:55;10.57;;;5.13;;
40122;SDS011;25832;45.490;4.912;2023-04-05T09:25:42;13.27;;;6.10;;
40122;SDS011;25832;45.490;4.912;2023-04-05T09:28:08;9.57;;;6.15;;
40122;SDS011;25832;45.490;4.912;2023-04-05T09:30:34;10.88;;;5.55;;
40122;SDS011;25832;45.490;4.912;2023-04-05T09:33:01;10.50;;;5.65;;
40122;SDS011;25832;45.490;4.912;2023-04-05T09:35:32;8.23;;;6.13;;
40122;SDS011;25832;45.490;4.912;2023-04-05T09:38:01;13.00;;;6.25;;
40122;SDS011;25832;45.490;4.912;2023-04-05T09:43:07;15.75;;;6.43;;
40122;SDS011;25832;45.490;4.912;2023-04-05T09:45:39;46.72;;;10.65;;
40122;SDS011;25832;45.490;4.912;2023-04-05T09:48:07;20.33;;;6.65;;
40122;SDS011;25832;45.490;4.912;2023-04-05T09:50:34;10.73;;;5.68;;
40122;SDS011;25832;45.490;4.912;2023-04-05T09:53:07;20.13;;;6.82;;
40122;SDS011;25832;45.490;4.912;2023-04-05T09:55:40;14.33;;;6.70;;
40122;SDS011;25832;45.490;4.912;2023-04-05T09:58:19;11.20;;;6.88;;
40122;SDS011;25832;45.490;4.912;2023-04-05T10:00:49;10.75;;;7.40;;
40122;SDS011;25832;45.490;4.912;2023-04-05T10:03:17;8.88;;;5.38;;
40122;SDS011;25832;45.490;4.912;2023-04-05T10:05:44;84.68;;;16.15;;
40122;SDS011;25832;45.490;4.912;2023-04-05T10:08:12;23.20;;;6.65;;
40122;SDS011;25832;45.490;4.912;2023-04-05T10:10:45;41.97;;;8.25;;
40122;SDS011;25832;45.490;4.912;2023-04-05T10:13:12;29.77;;;8.52;;
40122;SDS011;25832;45.490;4.912;2023-04-05T10:15:40;13.85;;;6.45;;
40122;SDS011;25832;45.490;4.912;2023-04-05T10:18:10;10.95;;;6.28;;
40122;SDS011;25832;45.490;4.912;2023-04-05T10:20:42;9.27;;;5.57;;
40122;SDS011;25832;45.490;4.912;2023-04-05T10:23:12;9.00;;;5.63;;
40122;SDS011;25832;45.490;4.912;2023-04-05T10:25:55;10.80;;;4.95;;
40122;SDS011;25832;45.490;4.912;2023-04-05T10:28:36;12.07;;;6.60;;
40122;SDS011;25832;45.490;4.912;2023-04-05T10:31:13;9.52;;;4.90;;
40122;SDS011;25832;45.490;4.912;2023-04-05T10:33:52;10.80;;;6.82;;
40122;SDS011;25832;45.490;4.912;2023-04-05T10:36:41;15.27;;;6.95;;
40122;SDS011;25832;45.490;4.912;2023-04-05T10:39:27;10.50;;;5.70;;
40122;SDS011;25832;45.490;4.912;2023-04-05T10:44:24;12.15;;;5.40;;
40122;SDS011;25832;45.490;4.912;2023-04-05T10:46:51;9.50;;;5.65;;
40122;SDS011;25832;45.490;4.912;2023-04-05T10:49:22;9.32;;;5.30;;
40122;SDS011;25832;45.490;4.912;2023-04-05T10:52:01;9.52;;;5.78;;
40122;SDS011;25832;45.490;4.912;2023-04-05T10:54:28;16.48;;;5.95;;
40122;SDS011;25832;45.490;4.912;2023-04-05T10:56:58;9.82;;;5.45;;
40122;SDS011;25832;45.490;4.912;2023-04-05T10:59:25;12.38;;;5.80;;
40122;SDS011;25832;45.490;4.912;2023-04-05T11:01:53;13.88;;;5.50;;
40122;SDS011;25832;45.490;4.912;2023-04-05T11:04:19;9.30;;;5.43;;
40122;SDS011;25832;45.490;4.912;2023-04-05T11:06:45;6.63;;;4.88;;
40122;SDS011;25832;45.490;4.912;2023-04-05T11:11:45;7.90;;;6.10;;
40122;SDS011;25832;45.490;4.912;2023-04-05T11:16:51;9.50;;;4.95;;
40122;SDS011;25832;45.490;4.912;2023-04-05T11:19:20;9.20;;;5.28;;
40122;SDS011;25832;45.490;4.912;2023-04-05T11:22:04;11.63;;;6.03;;
40122;SDS011;25832;45.490;4.912;2023-04-05T11:24:48;9.23;;;5.97;;
40122;SDS011;25832;45.490;4.912;2023-04-05T11:27:16;7.13;;;4.95;;
40122;SDS011;25832;45.490;4.912;2023-04-05T11:29:51;10.45;;;6.07;;
40122;SDS011;25832;45.490;4.912;2023-04-05T11:32:18;7.93;;;4.80;;
40122;SDS011;25832;45.490;4.912;2023-04-05T11:34:56;6.97;;;4.10;;
40122;SDS011;25832;45.490;4.912;2023-04-05T11:37:51;10.25;;;5.13;;
40122;SDS011;25832;45.490;4.912;2023-04-05T11:40:28;8.82;;;5.45;;
40122;SDS011;25832;45.490;4.912;2023-04-05T11:43:00;8.80;;;4.78;;
40122;SDS011;25832;45.490;4.912;2023-04-05T11:45:30;8.73;;;5.50;;
40122;SDS011;25832;45.490;4.912;2023-04-05T11:47:58;9.15;;;5.32;;
40122;SDS011;25832;45.490;4.912;2023-04-05T11:50:34;9.73;;;4.65;;
40122;SDS011;25832;45.490;4.912;2023-04-05T11:55:34;6.40;;;5.15;;
40122;SDS011;25832;45.490;4.912;2023-04-05T11:58:14;9.18;;;4.78;;
40122;SDS011;25832;45.490;4.912;2023-04-05T12:03:11;7.13;;;4.40;;
40122;SDS011;25832;45.490;4.912;2023-04-05T12:05:59;8.90;;;5.70;;
40122;SDS011;25832;45.490;4.912;2023-04-05T12:08:44;8.63;;;4.90;;
40122;SDS011;25832;45.490;4.912;2023-04-05T12:11:15;6.90;;;4.63;;
40122;SDS011;25832;45.490;4.912;2023-04-05T12:14:00;15.50;;;6.70;;
40122;SDS011;25832;45.490;4.912;2023-04-05T12:16:27;14.60;;;7.45;;
40122;SDS011;25832;45.490;4.912;2023-04-05T12:18:54;9.52;;;5.15;;
40122;SDS011;25832;45.490;4.912;2023-04-05T12:21:21;7.65;;;4.97;;
40122;SDS011;25832;45.490;4.912;2023-04-05T12:23:47;7.20;;;4.60;;
40122;SDS011;25832;45.490;4.912;2023-04-05T12:26:14;11.30;;;5.38;;
40122;SDS011;25832;45.490;4.912;2023-04-05T12:28:50;7.57;;;4.93;;
40122;SDS011;25832;45.490;4.912;2023-04-05T12:31:41;15.18;;;5.30;;
40122;SDS011;25832;45.490;4.912;2023-04-05T12:34:09;8.45;;;4.35;;
40122;SDS011;25832;45.490;4.912;2023-04-05T12:36:36;8.63;;;5.35;;
40122;SDS011;25832;45.490;4.912;2023-04-05T12:39:06;8.88;;;4.80;;
40122;SDS011;25832;45.490;4.912;2023-04-05T12:44:29;8.00;;;4.97;;
40122;SDS011;25832;45.490;4.912;2023-04-05T12:47:01;8.35;;;5.15;;
40122;SDS011;25832;45.490;4.912;2023-04-05T12:49:29;7.97;;;4.90;;
40122;SDS011;25832;45.490;4.912;2023-04-05T12:52:01;9.48;;;5.15;;
40122;SDS011;25832;45.490;4.912;2023-04-05T12:54:27;10.10;;;4.55;;
40122;SDS011;25832;45.490;4.912;2023-04-05T12:56:53;9.05;;;4.90;;
40122;SDS011;25832;45.490;4.912;2023-04-05T12:59:20;9.38;;;5.47;;
40122;SDS011;25832;45.490;4.912;2023-04-05T13:01:46;9.20;;;5.85;;
40122;SDS011;25832;45.490;4.912;2023-04-05T13:04:12;12.57;;;5.88;;
40122;SDS011;25832;45.490;4.912;2023-04-05T13:09:09;7.47;;;5.00;;
40122;SDS011;25832;45.490;4.912;2023-04-05T13:11:35;12.55;;;5.22;;
40122;SDS011;25832;45.490;4.912;2023-04-05T13:14:01;8.25;;;5.18;;
40122;SDS011;25832;45.490;4.912;2023-04-05T13:16:26;34.05;;;7.60;;
40122;SDS011;25832;45.490;4.912;2023-04-05T13:18:52;7.30;;;4.88;;
40122;SDS011;25832;45.490;4.912;2023-04-05T13:21:17;23.13;;;6.22;;
40122;SDS011;25832;45.490;4.912;2023-04-05T13:23:43;11.32;;;5.70;;
40122;SDS011;25832;45.490;4.912;2023-04-05T13:26:09;9.73;;;5.30;;
40122;SDS011;25832;45.490;4.912;2023-04-05T13:28:34;11.23;;;5.45;;
40122;SDS011;25832;45.490;4.912;2023-04-05T13:31:01;8.68;;;5.05;;
40122;SDS011;25832;45.490;4.912;2023-04-05T13:33:27;14.98;;;5.53;;
40122;SDS011;25832;45.490;4.912;2023-04-05T13:35:53;15.35;;;5.47;;
40122;SDS011;25832;45.490;4.912;2023-04-05T13:38:18;16.58;;;6.43;;
40122;SDS011;25832;45.490;4.912;2023-04-05T13:40:45;13.30;;;5.40;;
40122;SDS011;25832;45.490;4.912;2023-04-05T13:43:11;8.77;;;5.35;;
40122;SDS011;25832;45.490;4.912;2023-04-05T13:45:37;11.93;;;6.25;;
40122;SDS011;25832;45.490;4.912;2023-04-05T13:48:03;6.90;;;4.55;;
40122;SDS011;25832;45.490;4.912;2023-04-05T13:50:28;8.98;;;5.00;;
40122;SDS011;25832;45.490;4.912;2023-04-05T13:52:54;8.70;;;4.25;;
40122;SDS011;25832;45.490;4.912;2023-04-05T13:55:20;8.65;;;5.07;;
40122;SDS011;25832;45.490;4.912;2023-04-05T13:57:45;11.50;;;4.45;;
40122;SDS011;25832;45.490;4.912;2023-04-05T14:00:11;12.00;;;6.03;;
40122;SDS011;25832;45.490;4.912;2023-04-05T14:02:38;10.77;;;5.22;;
40122;SDS011;25832;45.490;4.912;2023-04-05T14:05:05;7.80;;;4.90;;
40122;SDS011;25832;45.490;4.912;2023-04-05T14:07:31;9.32;;;5.55;;
40122;SDS011;25832;45.490;4.912;2023-04-05T14:09:57;9.05;;;4.47;;
40122;SDS011;25832;45.490;4.912;2023-04-05T14:12:23;9.13;;;4.85;;
40122;SDS011;25832;45.490;4.912;2023-04-05T14:14:49;12.57;;;5.47;;
40122;SDS011;25832;45.490;4.912;2023-04-05T14:17:15;9.20;;;5.50;;
40122;SDS011;25832;45.490;4.912;2023-04-05T14:19:41;7.88;;;4.70;;
40122;SDS011;25832;45.490;4.912;2023-04-05T14:22:07;11.43;;;4.90;;
40122;SDS011;25832;45.490;4.912;2023-04-05T14:24:33;12.52;;;4.90;;
40122;SDS011;25832;45.490;4.912;2023-04-05T14:26:59;11.13;;;6.20;;
40122;SDS011;25832;45.490;4.912;2023-04-05T14:29:25;7.80;;;4.57;;
40122;SDS011;25832;45.490;4.912;2023-04-05T14:31:50;12.85;;;5.03;;
40122;SDS011;25832;45.490;4.912;2023-04-05T14:34:18;11.80;;;5.18;;
40122;SDS011;25832;45.490;4.912;2023-04-05T14:36:44;11.43;;;5.80;;
40122;SDS011;25832;45.490;4.912;2023-04-05T14:39:10;7.72;;;4.28;;
40122;SDS011;25832;45.490;4.912;2023-04-05T14:41:35;8.32;;;5.13;;
40122;SDS011;25832;45.490;4.912;2023-04-05T14:44:01;10.52;;;4.90;;
40122;SDS011;25832;45.490;4.912;2023-04-05T14:46:27;10.50;;;4.68;;
40122;SDS011;25832;45.490;4.912;2023-04-05T14:48:53;7.93;;;4.57;;
40122;SDS011;25832;45.490;4.912;2023-04-05T14:51:18;9.60;;;5.05;;
40122;SDS011;25832;45.490;4.912;2023-04-05T14:53:44;13.18;;;5.32;;
40122;SDS011;25832;45.490;4.912;2023-04-05T14:56:10;8.10;;;4.72;;
40122;SDS011;25832;45.490;4.912;2023-04-05T14:58:36;11.38;;;5.13;;
40122;SDS011;25832;45.490;4.912;2023-04-05T15:01:02;8.60;;;5.78;;
40122;SDS011;25832;45.490;4.912;2023-04-05T15:03:29;13.90;;;4.88;;
40122;SDS011;25832;45.490;4.912;2023-04-05T15:05:55;9.25;;;4.82;;
40122;SDS011;25832;45.490;4.912;2023-04-05T15:08:21;11.02;;;4.93;;
40122;SDS011;25832;45.490;4.912;2023-04-05T15:10:46;8.73;;;4.72;;
40122;SDS011;25832;45.490;4.912;2023-04-05T15:13:12;9.20;;;5.43;;
40122;SDS011;25832;45.490;4.912;2023-04-05T15:15:38;8.00;;;4.85;;
40122;SDS011;25832;45.490;4.912;2023-04-05T15:18:04;9.02;;;4.85;;
40122;SDS011;25832;45.490;4.912;2023-04-05T15:20:31;8.82;;;5.00;;
40122;SDS011;25832;45.490;4.912;2023-04-05T15:22:57;11.32;;;5.15;;
40122;SDS011;25832;45.490;4.912;2023-04-05T15:25:24;8.43;;;5.43;;
40122;SDS011;25832;45.490;4.912;2023-04-05T15:27:49;13.20;;;5.53;;
40122;SDS011;25832;45.490;4.912;2023-04-05T15:30:16;8.63;;;4.53;;
40122;SDS011;25832;45.490;4.912;2023-04-05T15:32:42;7.72;;;4.97;;
40122;SDS011;25832;45.490;4.912;2023-04-05T15:35:08;9.73;;;5.00;;